Time;durP1;ratioP1;P1;durP2;ratioP2;P2;SDS_P1;SDS_P2;PMS_P1;PMS_P2;Temp;Humidity;BMP_temperature;BMP_pressure;BME280_temperature;BME280_humidity;BME280_pressure;Samples;Min_cycle;Max_cycle;Signal;HPM_P1;HPM_P2
2022/04/22 00:00:59;;;;;;;10.40;6.20;;;;;;;11.48;61.75;100704.78;5032857;28;20037;-72
2022/04/22 00:03:24;;;;;;;10.68;6.75;;;;;;;11.48;62.07;100700.16;5035724;28;20060;-72
2022/04/22 00:05:50;;;;;;;8.60;6.15;;;;;;;11.46;61.60;100696.88;5035533;28;20543;-70
2022/04/22 00:08:15;;;;;;;11.85;6.55;;;;;;;11.45;62.98;100689.81;5035460;28;20026;-70
2022/04/22 00:11:29;;;;;;;12.43;6.82;;;;;;;11.42;62.75;100695.69;5035657;28;20053;-73
2022/04/22 00:13:26;;;;;;;9.60;6.75;;;;;;;11.37;62.95;100692.88;5015709;28;20049;-71
2022/04/22 00:15:51;;;;;;;9.68;7.13;;;;;;;11.37;62.60;100689.31;5016110;28;20484;-72
2022/04/22 00:18:16;;;;;;;10.77;6.75;;;;;;;11.37;61.92;100682.03;5015202;28;20038;-72
2022/04/22 00:20:41;;;;;;;11.23;7.00;;;;;;;11.35;63.40;100679.56;5015302;28;20480;-72
2022/04/22 00:23:07;;;;;;;11.68;6.85;;;;;;;11.32;63.21;100693.56;5015249;28;20026;-72
2022/04/22 00:25:32;;;;;;;9.63;6.93;;;;;;;11.33;62.91;100694.38;5015360;28;20034;-70
2022/04/22 00:27:58;;;;;;;10.48;7.10;;;;;;;11.26;63.20;100691.81;5034847;28;20392;-72
2022/04/22 00:30:23;;;;;;;10.07;7.45;;;;;;;11.23;63.17;100689.56;5034943;28;20044;-71
2022/04/22 00:32:49;;;;;;;10.77;7.50;;;;;;;11.22;63.11;100684.34;5035236;28;20033;-71
2022/04/22 00:35:14;;;;;;;12.38;7.03;;;;;;;11.23;64.01;100680.59;5034717;28;20366;-73
2022/04/22 00:37:40;;;;;;;9.25;7.10;;;;;;;11.21;64.07;100683.53;5035157;28;20025;-72
2022/04/22 00:40:06;;;;;;;11.70;7.65;;;;;;;11.20;64.08;100670.22;5017367;28;20025;-72
2022/04/22 00:42:31;;;;;;;11.52;6.90;;;;;;;11.18;63.52;100679.41;5034811;28;20060;-71
2022/04/22 00:44:57;;;;;;;12.30;7.60;;;;;;;11.20;64.57;100686.47;5034868;28;20034;-70
2022/04/22 00:47:22;;;;;;;10.43;6.95;;;;;;;11.14;64.91;100678.25;5033731;28;20029;-69
2022/04/22 00:49:47;;;;;;;11.75;7.18;;;;;;;11.11;64.93;100664.31;5035041;28;20037;-72
2022/04/22 00:52:14;;;;;;;17.27;7.63;;;;;;;11.08;64.74;100664.78;5034485;28;20057;-69
2022/04/22 00:54:40;;;;;;;11.93;7.07;;;;;;;11.02;65.13;100674.69;5034998;28;20071;-70
2022/04/22 00:57:06;;;;;;;11.05;6.85;;;;;;;10.96;65.34;100662.91;5034375;28;20490;-69
2022/04/22 00:59:33;;;;;;;11.63;7.20;;;;;;;10.93;65.87;100660.66;5034743;28;20034;-73
2022/04/22 01:01:58;;;;;;;11.15;7.75;;;;;;;10.86;66.03;100653.69;5032517;28;20026;-73
2022/04/22 01:09:51;;;;;;;12.48;7.40;;;;;;;10.87;66.82;100660.75;5034340;28;20056;-71
2022/04/22 01:12:18;;;;;;;10.85;7.30;;;;;;;10.84;66.32;100650.38;5034561;28;20034;-72
2022/04/22 01:14:45;;;;;;;13.10;7.70;;;;;;;10.70;67.42;100645.16;5034513;28;20377;-72
2022/04/22 01:17:11;;;;;;;9.15;7.05;;;;;;;10.75;66.67;100650.72;5034313;28;20025;-71
2022/04/22 01:19:37;;;;;;;11.57;7.40;;;;;;;10.74;67.51;100646.34;5034325;28;20036;-71
2022/04/22 01:22:03;;;;;;;15.60;7.32;;;;;;;10.73;67.71;100650.09;5034398;28;20021;-71
2022/04/22 01:24:29;;;;;;;13.00;7.38;;;;;;;10.73;67.72;100649.28;5033691;28;20025;-72
2022/04/22 01:26:55;;;;;;;12.02;7.30;;;;;;;10.68;67.75;100649.16;5033686;28;20034;-70
2022/04/22 01:29:21;;;;;;;12.85;7.80;;;;;;;10.69;68.50;100648.94;5033990;28;20041;-69
2022/04/22 01:31:47;;;;;;;12.07;8.13;;;;;;;10.70;67.90;100642.44;5034297;28;20121;-72
2022/04/22 01:34:12;;;;;;;12.40;7.68;;;;;;;10.64;68.31;100635.25;5034078;28;20378;-69
2022/04/22 01:36:38;;;;;;;12.07;8.35;;;;;;;10.56;69.34;100632.88;5034189;28;20032;-69
2022/04/22 01:39:03;;;;;;;10.88;7.75;;;;;;;10.61;68.66;100638.44;5015947;28;20021;-73
2022/04/22 01:41:29;;;;;;;9.73;7.70;;;;;;;10.62;68.44;100635.50;5033466;28;20037;-71
2022/04/22 01:43:55;;;;;;;18.85;8.65;;;;;;;10.56;69.26;100632.88;5034011;28;20029;-72
2022/04/22 01:46:20;;;;;;;12.32;7.93;;;;;;;10.58;69.83;100637.03;5033380;28;20040;-72
2022/04/22 01:48:46;;;;;;;12.27;8.80;;;;;;;10.62;69.58;100634.66;5016106;28;20029;-70
2022/04/22 01:51:11;;;;;;;14.15;8.57;;;;;;;10.62;69.67;100638.19;5032359;28;20065;-70
2022/04/22 01:53:36;;;;;;;11.45;8.15;;;;;;;10.59;70.14;100635.13;5033699;28;20026;-71
2022/04/22 01:56:03;;;;;;;13.75;8.27;;;;;;;10.56;70.17;100632.88;5033853;28;20071;-70
2022/04/22 01:58:28;;;;;;;12.32;8.07;;;;;;;10.61;70.19;100638.44;5032699;28;20036;-71
2022/04/22 02:00:53;;;;;;;12.25;8.95;;;;;;;10.55;70.21;100644.75;5013357;28;20029;-68
2022/04/22 02:03:18;;;;;;;15.50;8.68;;;;;;;10.56;69.60;100644.53;5033394;28;20441;-70
2022/04/22 02:05:44;;;;;;;13.05;8.50;;;;;;;10.55;69.77;100642.91;5033582;28;20076;-72
2022/04/22 02:08:09;;;;;;;14.57;8.30;;;;;;;10.49;70.00;100642.97;5032974;28;20022;-69
2022/04/22 02:10:34;;;;;;;13.48;8.63;;;;;;;10.45;70.37;100631.78;5033533;28;20050;-71
2022/04/22 02:13:00;;;;;;;14.77;8.85;;;;;;;10.42;71.03;100634.97;5033696;28;20473;-70
2022/04/22 02:15:26;;;;;;;15.65;9.10;;;;;;;10.43;70.51;100639.28;5033100;28;20041;-72
2022/04/22 02:17:52;;;;;;;16.35;9.15;;;;;;;10.43;70.95;100634.72;5033320;28;20029;-72
2022/04/22 02:20:17;;;;;;;15.40;8.77;;;;;;;10.40;70.65;100635.19;5032600;28;20398;-72
2022/04/22 02:22:42;;;;;;;12.23;8.77;;;;;;;10.35;70.91;100637.75;5015172;28;20029;-68
2022/04/22 02:25:08;;;;;;;12.13;8.73;;;;;;;10.24;72.00;100630.38;5031435;28;20473;-68
2022/04/22 02:30:18;;;;;;;11.18;8.80;;;;;;;10.20;71.82;100629.19;5052794;28;20060;-72
2022/04/22 02:32:44;;;;;;;11.70;9.05;;;;;;;10.16;72.31;100627.97;5043784;28;20430;-69
2022/04/22 02:35:09;;;;;;;15.10;10.10;;;;;;;10.16;72.79;100628.81;5032903;28;20072;-75
2022/04/22 02:37:35;;;;;;;13.63;9.48;;;;;;;10.12;72.26;100627.63;5014192;28;20375;-72
2022/04/22 02:40:00;;;;;;;12.02;9.55;;;;;;;10.14;72.99;100624.69;5031180;28;20511;-71
2022/04/22 02:45:27;;;;;;;16.27;9.50;;;;;;;10.18;72.67;100624.00;5032968;28;20049;-69
2022/04/22 02:47:55;;;;;;;12.73;9.27;;;;;;;10.13;72.37;100623.03;5032924;28;20057;-72
2022/04/22 02:50:20;;;;;;;14.02;10.27;;;;;;;10.14;72.46;100611.16;5032279;28;20259;-71
2022/04/22 02:52:45;;;;;;;16.80;9.98;;;;;;;10.14;73.09;100619.28;5032119;28;20109;-71
2022/04/22 02:55:11;;;;;;;16.35;10.52;;;;;;;10.13;73.39;100618.47;5031789;28;20465;-72
2022/04/22 02:57:36;;;;;;;17.08;9.88;;;;;;;10.10;72.77;100616.22;5032322;28;20018;-69
2022/04/22 03:00:02;;;;;;;14.38;9.70;;;;;;;10.06;73.62;100612.31;5032500;28;20453;-71
2022/04/22 03:02:28;;;;;;;13.40;9.68;;;;;;;10.02;73.81;100613.81;5012541;28;20033;-70
2022/04/22 03:04:53;;;;;;;13.23;9.88;;;;;;;10.00;73.57;100614.03;5032229;28;20076;-71
2022/04/22 03:07:19;;;;;;;14.30;10.45;;;;;;;10.01;73.79;100609.44;5032062;28;20484;-72
2022/04/22 03:09:45;;;;;;;13.95;10.38;;;;;;;10.04;74.33;100609.00;5031813;28;20402;-71
2022/04/22 03:12:13;;;;;;;13.10;9.65;;;;;;;9.97;73.97;100600.97;5032597;28;20030;-72
2022/04/22 03:14:38;;;;;;;14.10;10.63;;;;;;;9.85;73.62;100600.09;5032409;28;20025;-70
2022/04/22 03:17:04;;;;;;;16.42;11.00;;;;;;;9.85;74.52;100600.09;5032384;28;20032;-71
2022/04/22 03:19:29;;;;;;;16.65;9.98;;;;;;;9.83;74.86;100597.63;5014340;28;20030;-72
2022/04/22 03:21:54;;;;;;;15.35;10.43;;;;;;;9.81;74.98;100594.28;5032070;28;20037;-70
2022/04/22 03:24:20;;;;;;;14.45;10.82;;;;;;;9.78;74.84;100592.03;5032063;28;20044;-71
2022/04/22 03:26:45;;;;;;;13.95;10.25;;;;;;;9.82;74.61;100597.84;5032376;28;20033;-70
2022/04/22 03:29:10;;;;;;;16.15;10.52;;;;;;;9.80;74.88;100598.06;5032561;28;20036;-70
2022/04/22 03:31:36;;;;;;;14.30;10.88;;;;;;;9.81;74.72;100609.69;5032147;28;20033;-73
2022/04/22 03:34:01;;;;;;;15.80;10.80;;;;;;;9.81;74.28;100607.00;5030992;28;20048;-72
2022/04/22 03:36:26;;;;;;;14.35;10.35;;;;;;;9.77;74.43;100590.41;5031793;28;20037;-73
2022/04/22 03:38:51;;;;;;;15.52;11.00;;;;;;;9.76;75.04;100588.75;5032247;28;20067;-71
2022/04/22 03:41:17;;;;;;;15.40;10.88;;;;;;;9.73;74.52;100581.91;5031956;28;20029;-71
2022/04/22 03:43:42;;;;;;;16.13;10.45;;;;;;;9.70;75.83;100589.66;5032235;28;20029;-71
2022/04/22 03:46:07;;;;;;;15.60;11.35;;;;;;;9.63;75.16;100595.16;5031847;28;20025;-71
2022/04/22 03:48:33;;;;;;;18.63;10.77;;;;;;;9.65;75.87;100594.94;5014401;28;20148;-72
2022/04/22 03:50:58;;;;;;;14.73;10.70;;;;;;;9.62;75.71;100590.78;5031872;28;20030;-72
2022/04/22 03:53:24;;;;;;;14.65;11.27;;;;;;;9.61;76.12;100594.53;5031643;28;20112;-71
2022/04/22 03:55:49;;;;;;;16.52;11.98;;;;;;;9.64;75.78;100588.69;5031237;28;20060;-71
2022/04/22 03:58:17;;;;;;;18.95;11.88;;;;;;;9.61;76.04;100582.91;5014254;28;20061;-72
2022/04/22 04:00:50;;;;;;;21.15;11.48;;;;;;;9.60;76.25;100579.34;5029803;28;20028;-73
2022/04/22 04:03:16;;;;;;;17.30;12.23;;;;;;;9.60;76.12;100578.53;5031620;28;20029;-71
2022/04/22 04:05:50;;;;;;;18.38;12.77;;;;;;;9.52;76.73;100574.28;5032278;28;20033;-71
2022/04/22 04:08:20;;;;;;;18.23;12.27;;;;;;;9.53;76.66;100574.03;5031118;28;20358;-72
2022/04/22 04:16:17;;;;;;;18.23;12.20;;;;;;;9.48;75.97;100575.75;5031512;28;20091;-71
2022/04/22 04:18:43;;;;;;;18.45;12.05;;;;;;;9.50;76.59;100576.38;5031265;28;20038;-73
2022/04/22 04:23:56;;;;;;;19.05;12.82;;;;;;;9.41;76.78;100578.53;5035408;28;20048;-70
2022/04/22 04:26:24;;;;;;;17.92;12.48;;;;;;;9.34;77.44;100569.69;5017370;28;20369;-72
2022/04/22 04:28:50;;;;;;;16.50;12.57;;;;;;;9.42;77.53;100576.66;5035140;28;20424;-73
2022/04/22 04:31:15;;;;;;;17.23;12.27;;;;;;;9.35;76.80;100569.47;5035304;28;20120;-70
2022/04/22 04:33:42;;;;;;;20.52;14.52;;;;;;;9.35;76.86;100568.66;5034923;28;20129;-73
2022/04/22 04:36:10;;;;;;;16.73;13.00;;;;;;;9.31;77.88;100568.25;5035232;28;20385;-72
2022/04/22 04:38:36;;;;;;;17.40;12.40;;;;;;;9.36;77.45;100575.69;5034625;28;20401;-70
2022/04/22 04:41:02;;;;;;;19.95;13.35;;;;;;;9.35;77.92;100576.75;5035051;28;20030;-70
2022/04/22 04:43:27;;;;;;;20.20;12.90;;;;;;;9.34;77.51;100578.59;5034528;28;20108;-70
2022/04/22 04:45:53;;;;;;;19.45;12.63;;;;;;;9.31;77.53;100568.25;5035017;28;20075;-70
2022/04/22 04:48:18;;;;;;;17.52;12.98;;;;;;;9.34;77.76;100578.59;5034362;28;20033;-72
2022/04/22 04:50:45;;;;;;;18.58;13.00;;;;;;;9.28;77.70;100574.09;5035016;28;20084;-70
2022/04/22 04:53:11;;;;;;;15.73;13.27;;;;;;;9.30;78.41;100571.16;5033626;28;20038;-71
2022/04/22 04:55:37;;;;;;;17.80;13.30;;;;;;;9.36;78.01;100564.88;5034345;28;20099;-72
2022/04/22 04:58:03;;;;;;;18.67;13.80;;;;;;;9.31;78.34;100567.44;5034353;28;20038;-70
2022/04/22 05:00:28;;;;;;;24.88;13.07;;;;;;;9.32;78.25;100561.00;5032206;28;20023;-71
2022/04/22 05:02:55;;;;;;;19.77;13.52;;;;;;;9.34;77.96;100564.28;5034682;28;20384;-72
2022/04/22 05:05:20;;;;;;;18.52;13.25;;;;;;;9.33;78.66;100565.31;5034511;28;20033;-72
2022/04/22 05:07:51;;;;;;;20.42;13.55;;;;;;;9.37;77.79;100570.03;5034721;28;20098;-72
2022/04/22 05:10:18;;;;;;;19.23;13.90;;;;;;;9.32;78.77;100567.22;5017256;28;20619;-72
2022/04/22 05:12:48;;;;;;;25.35;14.35;;;;;;;9.36;78.47;100568.41;5033967;28;20388;-73
2022/04/22 05:15:14;;;;;;;17.23;12.95;;;;;;;9.28;78.84;100562.47;5034257;28;20033;-72
2022/04/22 05:17:41;;;;;;;24.95;14.38;;;;;;;9.29;79.03;100559.56;5034149;28;20037;-72
2022/04/22 05:20:08;;;;;;;21.80;14.25;;;;;;;9.30;79.34;100565.78;5034038;28;20176;-71
2022/04/22 05:22:33;;;;;;;21.30;14.15;;;;;;;9.35;78.86;100574.84;5034034;28;20029;-70
2022/04/22 05:24:59;;;;;;;22.08;13.98;;;;;;;9.34;79.84;100573.19;5034367;28;20041;-70
2022/04/22 05:27:24;;;;;;;17.73;13.75;;;;;;;9.33;79.81;100571.56;5033550;28;20430;-73
2022/04/22 05:32:36;;;;;;;19.83;13.73;;;;;;;9.35;80.12;100569.47;5033747;28;20099;-72
2022/04/22 05:35:02;;;;;;;21.13;14.80;;;;;;;9.38;80.08;100570.91;5015973;28;20439;-72
2022/04/22 05:37:27;;;;;;;19.80;13.82;;;;;;;9.45;80.13;100578.91;5033681;28;20025;-72
2022/04/22 05:39:52;;;;;;;18.30;13.88;;;;;;;9.45;79.79;100571.66;5000167;28;20038;-72
2022/04/22 05:42:17;;;;;;;23.10;15.52;;;;;;;9.48;80.16;100579.31;5034025;28;20033;-72
2022/04/22 05:44:43;;;;;;;20.88;15.30;;;;;;;9.52;80.29;100587.78;5033777;28;20031;-73
2022/04/22 05:47:08;;;;;;;22.17;15.75;;;;;;;9.58;80.57;100582.28;5033864;28;20017;-73
2022/04/22 05:49:33;;;;;;;22.98;15.23;;;;;;;9.54;80.54;100577.56;5033741;28;20067;-77
2022/04/22 05:51:58;;;;;;;22.05;15.50;;;;;;;9.58;80.57;100578.78;5016539;28;20030;-73
2022/04/22 05:54:24;;;;;;;26.52;16.85;;;;;;;9.63;80.93;100587.03;5033944;28;20457;-74
2022/04/22 05:56:49;;;;;;;22.90;15.82;;;;;;;9.67;80.86;100580.13;5032832;28;20040;-72
2022/04/22 05:59:14;;;;;;;24.27;16.73;;;;;;;9.69;81.11;100586.13;5015962;28;20532;-74
2022/04/22 06:01:41;;;;;;;21.55;15.65;;;;;;;9.77;80.54;100585.00;5013525;28;20038;-76
2022/04/22 06:04:06;;;;;;;20.23;16.00;;;;;;;9.78;80.53;100585.81;5033739;28;20036;-75
2022/04/22 06:06:31;;;;;;;22.00;16.10;;;;;;;9.82;81.24;100584.31;5015690;28;20033;-72
2022/04/22 06:11:40;;;;;;;24.77;16.35;;;;;;;9.84;81.77;100583.03;5032638;28;20099;-72
2022/04/22 06:14:06;;;;;;;23.17;16.42;;;;;;;9.84;80.98;100574.09;5033456;28;20034;-72
2022/04/22 06:16:31;;;;;;;22.45;17.33;;;;;;;9.87;81.30;100576.34;5032801;28;20112;-72
2022/04/22 06:18:56;;;;;;;22.27;16.70;;;;;;;9.94;81.56;100588.72;5033291;28;20036;-71
2022/04/22 06:21:22;;;;;;;23.52;17.80;;;;;;;9.98;81.01;100581.00;5032583;28;20472;-72
2022/04/22 06:23:47;;;;;;;26.67;17.35;;;;;;;10.01;81.45;100572.44;5032817;28;20025;-71
2022/04/22 06:26:13;;;;;;;22.48;17.10;;;;;;;10.05;81.15;100581.72;5032561;28;20026;-72
2022/04/22 06:28:38;;;;;;;20.45;16.88;;;;;;;10.06;81.15;100574.47;5032868;28;20029;-71
2022/04/22 06:31:03;;;;;;;24.67;17.65;;;;;;;10.07;82.10;100576.94;5033067;28;20036;-71
2022/04/22 06:33:29;;;;;;;24.08;18.00;;;;;;;10.18;80.88;100582.63;5015179;28;20076;-71
2022/04/22 06:35:59;;;;;;;23.88;18.10;;;;;;;10.22;81.59;100581.09;5033193;28;20048;-72
2022/04/22 06:38:26;;;;;;;22.15;18.00;;;;;;;10.29;80.77;100584.53;5032778;28;20172;-70
2022/04/22 06:46:19;;;;;;;23.42;18.73;;;;;;;10.48;80.71;100576.38;5032465;28;20039;-72
2022/04/22 06:48:45;;;;;;;24.15;18.27;;;;;;;10.50;80.18;100582.41;5032693;28;20539;-70
2022/04/22 06:51:11;;;;;;;20.02;17.40;;;;;;;10.52;80.66;100572.16;5032842;28;20068;-72
2022/04/22 06:53:37;;;;;;;27.85;18.10;;;;;;;10.56;80.98;100579.59;5032177;28;20029;-70
2022/04/22 06:56:06;;;;;;;22.98;18.30;;;;;;;10.60;80.63;100579.97;5032884;28;20030;-72
2022/04/22 06:58:33;;;;;;;23.08;18.35;;;;;;;10.64;80.52;100581.13;5014619;28;20475;-72
2022/04/22 07:00:59;;;;;;;23.20;17.75;;;;;;;10.67;79.69;100574.44;5030243;28;20091;-72
2022/04/22 07:03:24;;;;;;;24.58;17.65;;;;;;;10.70;80.34;100574.78;5032580;28;20493;-71
2022/04/22 07:05:51;;;;;;;21.70;17.33;;;;;;;10.74;80.47;100577.88;5032272;28;20029;-72
2022/04/22 07:08:18;;;;;;;22.23;16.38;;;;;;;10.84;80.45;100574.59;5032396;28;20038;-70
2022/04/22 07:10:45;;;;;;;23.48;17.85;;;;;;;10.93;79.92;100575.88;5031783;28;20056;-70
2022/04/22 07:13:12;;;;;;;22.10;17.67;;;;;;;10.95;79.82;100581.91;5032387;28;20120;-72
2022/04/22 07:15:38;;;;;;;22.58;17.90;;;;;;;10.95;79.10;100571.88;5032311;28;20075;-70
2022/04/22 07:18:04;;;;;;;20.27;17.80;;;;;;;11.01;78.52;100570.13;5032439;28;20034;-69
2022/04/22 07:20:30;;;;;;;23.17;17.33;;;;;;;11.08;78.76;100559.19;5031766;28;20030;-71
2022/04/22 07:22:55;;;;;;;21.75;17.08;;;;;;;11.12;78.66;100565.78;5014262;28;20042;-71
2022/04/22 07:25:21;;;;;;;24.27;17.98;;;;;;;11.16;78.20;100565.06;5032336;28;20033;-69
2022/04/22 07:27:48;;;;;;;23.10;17.52;;;;;;;11.17;78.51;100564.03;5032151;28;20104;-71
2022/04/22 07:30:15;;;;;;;24.08;17.98;;;;;;;11.25;78.90;100562.03;5032288;28;20037;-70
2022/04/22 07:32:42;;;;;;;21.98;17.23;;;;;;;11.31;78.47;100550.25;5032058;28;20051;-70
2022/04/22 07:35:12;;;;;;;21.40;16.85;;;;;;;11.40;78.46;100548.81;5032371;28;20040;-70
2022/04/22 07:37:40;;;;;;;22.02;16.38;;;;;;;11.44;77.63;100549.97;5031835;28;20108;-69
2022/04/22 07:40:06;;;;;;;22.63;16.80;;;;;;;11.50;77.82;100551.75;5031939;28;20037;-71
2022/04/22 07:42:33;;;;;;;21.15;16.75;;;;;;;11.52;77.16;100554.22;5031838;28;20112;-70
2022/04/22 07:47:47;;;;;;;20.98;17.02;;;;;;;11.51;76.92;100550.66;5031911;28;20045;-72
2022/04/22 07:50:13;;;;;;;19.98;16.42;;;;;;;11.51;76.87;100552.56;5031988;28;20057;-69
2022/04/22 07:52:39;;;;;;;21.20;16.15;;;;;;;11.53;76.51;100561.25;5031547;28;20037;-69
2022/04/22 07:55:05;;;;;;;21.30;16.38;;;;;;;11.59;76.93;100549.47;5032102;28;20574;-69
2022/04/22 07:57:30;;;;;;;20.30;16.58;;;;;;;11.65;75.82;100553.91;5035976;28;20425;-71
2022/04/22 07:59:56;;;;;;;20.08;16.00;;;;;;;11.76;76.58;100551.44;5035858;28;20030;-70
2022/04/22 08:02:23;;;;;;;20.85;16.48;;;;;;;11.78;76.39;100546.59;5033583;28;20049;-72
2022/04/22 08:04:49;;;;;;;19.23;15.52;;;;;;;11.83;75.79;100544.78;5035243;28;20362;-71
2022/04/22 08:07:16;;;;;;;20.50;15.35;;;;;;;11.91;75.24;100550.91;5035453;28;20044;-70
2022/04/22 08:09:41;;;;;;;18.63;15.70;;;;;;;12.00;75.61;100544.06;5035314;28;20485;-69
2022/04/22 08:12:07;;;;;;;19.08;15.68;;;;;;;12.14;76.25;100545.44;5035777;28;20079;-71
2022/04/22 08:14:33;;;;;;;17.42;14.95;;;;;;;12.19;74.61;100552.84;5035389;28;20025;-68
2022/04/22 08:17:00;;;;;;;20.63;15.05;;;;;;;12.19;74.24;100539.28;5035388;28;20393;-71
2022/04/22 08:19:25;;;;;;;22.08;15.80;;;;;;;12.17;73.86;100547.66;5035143;28;20469;-70
2022/04/22 08:21:50;;;;;;;15.38;13.55;;;;;;;12.13;74.17;100543.78;5035005;28;20095;-71
2022/04/22 08:24:15;;;;;;;17.40;14.13;;;;;;;12.15;74.37;100538.09;5035509;28;20026;-71
2022/04/22 08:26:41;;;;;;;17.08;14.43;;;;;;;12.11;73.86;100540.50;5017414;28;20037;-71
2022/04/22 08:29:06;;;;;;;19.35;15.10;;;;;;;12.07;74.22;100533.91;5033991;28;20029;-71
2022/04/22 08:31:31;;;;;;;19.60;15.63;;;;;;;12.06;74.76;100548.53;5035431;28;20030;-70
2022/04/22 08:33:57;;;;;;;18.33;15.20;;;;;;;12.06;74.54;100545.81;5035551;28;20496;-71
2022/04/22 08:36:30;;;;;;;18.98;15.57;;;;;;;12.03;74.63;100544.44;5034777;28;20492;-72
2022/04/22 08:38:57;;;;;;;21.63;15.65;;;;;;;12.02;74.67;100531.09;5034919;28;20037;-72
2022/04/22 08:41:23;;;;;;;21.52;15.70;;;;;;;12.05;75.29;100517.88;5017451;28;20084;-71
2022/04/22 08:43:51;;;;;;;18.08;15.63;;;;;;;12.08;74.53;100513.88;5034626;28;20029;-73
2022/04/22 08:51:45;;;;;;;18.58;14.80;;;;;;;12.39;73.72;100519.81;5034149;28;20044;-71
2022/04/22 08:54:13;;;;;;;19.75;15.10;;;;;;;12.48;73.52;100518.34;5034693;28;20029;-72
2022/04/22 08:56:39;;;;;;;20.27;15.27;;;;;;;12.65;73.59;100523.78;5016852;28;20036;-73
2022/04/22 08:59:05;;;;;;;19.13;15.43;;;;;;;12.81;73.48;100527.56;5020231;28;20026;-72
2022/04/22 09:01:30;;;;;;;19.92;15.63;;;;;;;12.92;72.43;100526.66;5012350;28;20033;-73
2022/04/22 09:03:55;;;;;;;17.65;15.20;;;;;;;12.93;71.69;100520.13;5014689;28;20045;-71
2022/04/22 09:06:23;;;;;;;19.05;14.48;;;;;;;12.83;71.66;100521.88;5014910;28;20026;-72
2022/04/22 09:08:50;;;;;;;22.13;15.68;;;;;;;12.79;71.88;100518.00;5013689;28;20042;-72
2022/04/22 09:11:16;;;;;;;16.65;14.35;;;;;;;12.81;71.79;100518.59;5019499;28;20049;-71
2022/04/22 09:13:41;;;;;;;20.85;15.13;;;;;;;12.78;71.32;100514.47;5046709;28;20041;-72
2022/04/22 09:16:06;;;;;;;17.20;14.27;;;;;;;12.81;71.47;100511.28;5053818;28;20090;-72
2022/04/22 09:18:35;;;;;;;17.88;14.32;;;;;;;12.88;71.36;100513.84;5036028;28;20057;-73
2022/04/22 09:21:06;;;;;;;21.02;14.70;;;;;;;12.89;71.50;100500.00;5036149;28;20068;-73
2022/04/22 09:23:34;;;;;;;22.45;14.15;;;;;;;12.96;70.91;100499.00;5036561;28;20025;-72
2022/04/22 09:26:02;;;;;;;17.27;14.13;;;;;;;13.03;71.43;100503.19;5054125;28;20029;-73
2022/04/22 09:28:27;;;;;;;15.98;13.23;;;;;;;13.12;70.51;100496.25;5044558;28;20108;-73
2022/04/22 09:31:00;;;;;;;16.83;12.40;;;;;;;13.22;69.33;100495.56;5005144;28;20118;-73
2022/04/22 09:33:32;;;;;;;15.65;12.60;;;;;;;13.28;68.35;100493.72;5015873;28;20081;-72
2022/04/22 09:44:38;;;;;;;15.60;11.52;;;;;;;13.24;67.58;100481.72;4953131;29;20505;-72
2022/04/22 09:47:11;;;;;;;15.50;11.90;;;;;;;13.23;67.74;100483.63;5001259;28;20046;-73
2022/04/22 09:49:38;;;;;;;16.48;12.07;;;;;;;13.24;68.59;100471.69;4996788;28;20036;-74
2022/04/22 09:52:05;;;;;;;17.67;12.02;;;;;;;13.30;68.23;100467.97;5026369;28;20469;-75
2022/04/22 09:54:30;;;;;;;12.98;11.48;;;;;;;13.30;67.35;100462.53;5033799;28;20067;-72
2022/04/22 09:56:56;;;;;;;15.63;12.02;;;;;;;13.42;67.46;100461.59;5033508;28;20057;-72
2022/04/22 09:59:26;;;;;;;14.75;12.05;;;;;;;13.48;66.75;100457.84;5033676;28;20033;-76
2022/04/22 10:01:52;;;;;;;13.82;11.27;;;;;;;13.51;65.98;100465.50;5030622;28;20029;-71
2022/04/22 10:04:19;;;;;;;13.02;10.73;;;;;;;13.55;66.13;100455.75;5032948;28;20033;-73
2022/04/22 10:06:45;;;;;;;12.93;11.00;;;;;;;13.56;65.21;100446.53;5021163;28;20026;-73
2022/04/22 10:09:11;;;;;;;15.05;10.70;;;;;;;13.62;65.08;100456.41;5013719;28;20048;-73
2022/04/22 10:11:38;;;;;;;10.85;9.55;;;;;;;13.62;63.50;100447.44;5013160;28;20054;-73
2022/04/22 10:14:09;;;;;;;12.95;9.73;;;;;;;13.60;62.98;100455.00;4996066;28;20032;-72
2022/04/22 10:16:35;;;;;;;14.55;10.00;;;;;;;13.57;63.24;100450.06;4980039;28;20378;-72
2022/04/22 10:19:01;;;;;;;11.30;9.95;;;;;;;13.55;63.20;100449.53;5012940;28;20030;-72
2022/04/22 10:21:27;;;;;;;16.35;10.23;;;;;;;13.51;63.41;100451.91;5021827;28;20124;-72
2022/04/22 10:23:52;;;;;;;11.65;10.40;;;;;;;13.52;64.01;100456.28;5032736;28;20091;-73
2022/04/22 10:26:18;;;;;;;12.75;10.40;;;;;;;13.53;63.87;100449.78;5033240;28;20025;-73
2022/04/22 10:28:46;;;;;;;15.95;10.82;;;;;;;13.56;63.58;100441.09;5032937;28;20461;-73
2022/04/22 10:31:12;;;;;;;13.40;11.10;;;;;;;13.58;64.08;100441.66;5033185;28;20030;-73
2022/04/22 10:33:43;;;;;;;14.27;11.68;;;;;;;13.65;63.56;100445.00;5032972;28;20382;-73
2022/04/22 10:36:12;;;;;;;15.00;12.68;;;;;;;13.75;64.11;100438.03;5032160;28;20025;-72
2022/04/22 10:38:39;;;;;;;14.18;11.60;;;;;;;13.79;63.68;100439.97;5032389;28;20079;-73
2022/04/22 10:41:22;;;;;;;15.80;11.60;;;;;;;13.84;63.46;100436.50;5033019;28;20468;-73
2022/04/22 10:49:37;;;;;;;14.57;11.50;;;;;;;13.79;62.49;100436.44;5032861;28;20048;-71
2022/04/22 10:52:09;;;;;;;15.30;11.65;;;;;;;13.80;62.50;100425.31;5031633;28;20042;-72
2022/04/22 10:54:53;;;;;;;11.88;10.68;;;;;;;13.84;61.32;100433.78;5015270;28;20037;-71
2022/04/22 10:57:24;;;;;;;13.13;11.00;;;;;;;13.83;60.87;100424.00;5012947;28;20037;-72
2022/04/22 11:00:07;;;;;;;11.48;10.27;;;;;;;13.85;61.32;100431.88;5012685;28;20033;-72
2022/04/22 11:02:35;;;;;;;12.35;11.00;;;;;;;13.84;61.23;100425.59;5027129;28;20542;-73
2022/04/22 11:05:23;;;;;;;13.02;11.60;;;;;;;13.91;62.02;100420.78;5032389;28;20037;-72
2022/04/22 11:07:57;;;;;;;15.18;11.23;;;;;;;13.98;61.60;100421.41;5032496;28;20024;-71
2022/04/22 11:10:29;;;;;;;13.38;11.73;;;;;;;14.03;61.03;100417.09;5032276;28;20535;-72
2022/04/22 11:12:56;;;;;;;13.05;10.95;;;;;;;14.04;60.66;100416.00;5032345;28;20571;-72
2022/04/22 11:15:44;;;;;;;15.25;11.18;;;;;;;14.05;61.07;100415.75;5031387;28;20088;-71
2022/04/22 11:18:10;;;;;;;15.10;11.50;;;;;;;14.00;60.80;100402.91;5011385;28;20089;-72
2022/04/22 11:20:42;;;;;;;16.55;11.43;;;;;;;14.09;60.59;100407.91;5020005;28;20036;-72
2022/04/22 11:23:12;;;;;;;13.88;11.93;;;;;;;14.13;60.40;100406.28;5012894;28;20045;-72
2022/04/22 11:25:38;;;;;;;16.20;11.35;;;;;;;14.20;60.74;100406.88;5012686;28;20029;-72
2022/04/22 11:28:04;;;;;;;23.85;11.25;;;;;;;14.20;60.87;100404.16;5012126;28;20050;-70
2022/04/22 11:30:32;;;;;;;13.88;11.65;;;;;;;14.25;60.39;100403.38;5013363;28;20030;-71
2022/04/22 11:33:16;;;;;;;16.73;11.88;;;;;;;14.18;60.30;100404.44;4998553;28;20041;-75
2022/04/22 11:35:41;;;;;;;19.40;12.68;;;;;;;14.08;60.59;100409.78;5016258;28;20030;-73
2022/04/22 11:38:07;;;;;;;16.48;12.23;;;;;;;13.99;60.82;100401.28;5018729;28;20478;-72
2022/04/22 11:40:40;;;;;;;12.63;11.13;;;;;;;13.99;60.89;100406.75;5034228;28;20041;-73
2022/04/22 11:43:09;;;;;;;16.00;11.63;;;;;;;13.97;60.52;100402.63;5039603;28;20032;-74
2022/04/22 11:45:36;;;;;;;16.83;11.48;;;;;;;13.97;60.67;100405.34;5025731;28;20539;-72
2022/04/22 11:48:12;;;;;;;18.83;12.57;;;;;;;13.95;60.41;100400.16;5035851;28;20377;-71
2022/04/22 11:50:39;;;;;;;16.60;12.25;;;;;;;13.97;60.89;100389.84;5035687;28;20060;-73
2022/04/22 11:53:34;;;;;;;14.93;11.98;;;;;;;14.07;60.40;100396.44;5034874;28;20416;-73
2022/04/22 11:56:01;;;;;;;17.77;12.80;;;;;;;14.11;60.73;100392.13;5035631;28;20084;-71
2022/04/22 11:58:27;;;;;;;16.60;12.73;;;;;;;14.18;60.94;100395.44;5035967;28;20030;-73
2022/04/22 12:06:22;;;;;;;15.93;12.55;;;;;;;14.34;59.89;100383.59;5035633;28;20056;-73
2022/04/22 12:08:50;;;;;;;19.95;12.65;;;;;;;14.44;59.73;100379.31;5035443;28;20045;-73
2022/04/22 12:11:19;;;;;;;14.55;11.50;;;;;;;14.48;59.69;100386.69;5035871;28;20049;-71